sensor_id;sensor_type;location;lat;lon;timestamp;P1;durP1;ratioP1;P2;durP2;ratioP2
11139;SDS011;5624;49.388;11.350;2023-02-28T00:01:02;6.63;;;5.40;;
11139;SDS011;5624;49.388;11.350;2023-02-28T00:03:28;7.47;;;5.37;;
11139;SDS011;5624;49.388;11.350;2023-02-28T00:05:53;6.40;;;4.90;;
11139;SDS011;5624;49.388;11.350;2023-02-28T00:08:19;6.27;;;4.93;;
11139;SDS011;5624;49.388;11.350;2023-02-28T00:10:45;6.43;;;4.70;;
11139;SDS011;5624;49.388;11.350;2023-02-28T00:13:10;5.70;;;5.10;;
11139;SDS011;5624;49.388;11.350;2023-02-28T00:15:38;8.93;;;5.30;;
11139;SDS011;5624;49.388;11.350;2023-02-28T00:18:03;7.27;;;5.30;;
11139;SDS011;5624;49.388;11.350;2023-02-28T00:20:29;8.60;;;5.67;;
11139;SDS011;5624;49.388;11.350;2023-02-28T00:22:55;7.03;;;5.53;;
11139;SDS011;5624;49.388;11.350;2023-02-28T00:25:22;8.23;;;5.20;;
11139;SDS011;5624;49.388;11.350;2023-02-28T00:27:49;8.00;;;5.40;;
11139;SDS011;5624;49.388;11.350;2023-02-28T00:30:19;6.33;;;5.20;;
11139;SDS011;5624;49.388;11.350;2023-02-28T00:32:46;7.90;;;5.63;;
11139;SDS011;5624;49.388;11.350;2023-02-28T00:35:12;8.43;;;5.50;;
11139;SDS011;5624;49.388;11.350;2023-02-28T00:37:38;7.90;;;6.00;;
11139;SDS011;5624;49.388;11.350;2023-02-28T00:40:04;7.23;;;5.60;;
11139;SDS011;5624;49.388;11.350;2023-02-28T00:42:31;8.57;;;5.77;;
11139;SDS011;5624;49.388;11.350;2023-02-28T00:44:57;7.53;;;5.60;;
11139;SDS011;5624;49.388;11.350;2023-02-28T00:47:23;8.90;;;5.97;;
11139;SDS011;5624;49.388;11.350;2023-02-28T00:49:48;8.13;;;5.53;;
11139;SDS011;5624;49.388;11.350;2023-02-28T00:52:14;7.83;;;5.80;;
11139;SDS011;5624;49.388;11.350;2023-02-28T00:54:39;9.00;;;6.10;;
11139;SDS011;5624;49.388;11.350;2023-02-28T00:57:05;8.57;;;6.43;;
11139;SDS011;5624;49.388;11.350;2023-02-28T00:59:31;9.23;;;5.90;;
11139;SDS011;5624;49.388;11.350;2023-02-28T01:01:56;10.50;;;5.60;;
11139;SDS011;5624;49.388;11.350;2023-02-28T01:04:22;9.53;;;5.97;;
11139;SDS011;5624;49.388;11.350;2023-02-28T01:06:47;8.13;;;5.77;;
11139;SDS011;5624;49.388;11.350;2023-02-28T01:09:13;9.60;;;6.00;;
11139;SDS011;5624;49.388;11.350;2023-02-28T01:11:39;9.00;;;5.80;;
11139;SDS011;5624;49.388;11.350;2023-02-28T01:14:06;9.17;;;6.10;;
11139;SDS011;5624;49.388;11.350;2023-02-28T01:16:33;11.20;;;6.30;;
11139;SDS011;5624;49.388;11.350;2023-02-28T01:18:59;7.60;;;5.90;;
11139;SDS011;5624;49.388;11.350;2023-02-28T01:21:24;6.93;;;5.57;;
11139;SDS011;5624;49.388;11.350;2023-02-28T01:23:50;7.87;;;5.67;;
11139;SDS011;5624;49.388;11.350;2023-02-28T01:26:22;8.57;;;5.50;;
11139;SDS011;5624;49.388;11.350;2023-02-28T01:28:48;9.77;;;5.30;;
11139;SDS011;5624;49.388;11.350;2023-02-28T01:31:15;7.60;;;5.50;;
11139;SDS011;5624;49.388;11.350;2023-02-28T01:33:41;6.80;;;5.23;;
11139;SDS011;5624;49.388;11.350;2023-02-28T01:36:09;7.83;;;6.00;;
11139;SDS011;5624;49.388;11.350;2023-02-28T01:38:37;7.93;;;5.97;;
11139;SDS011;5624;49.388;11.350;2023-02-28T01:41:03;7.43;;;5.93;;
11139;SDS011;5624;49.388;11.350;2023-02-28T01:43:30;6.90;;;5.63;;
11139;SDS011;5624;49.388;11.350;2023-02-28T01:46:16;8.57;;;5.87;;
11139;SDS011;5624;49.388;11.350;2023-02-28T01:49:24;9.90;;;6.33;;
11139;SDS011;5624;49.388;11.350;2023-02-28T01:51:49;9.20;;;6.33;;
11139;SDS011;5624;49.388;11.350;2023-02-28T01:54:18;9.83;;;6.20;;
11139;SDS011;5624;49.388;11.350;2023-02-28T01:56:53;8.03;;;6.13;;
11139;SDS011;5624;49.388;11.350;2023-02-28T01:59:27;7.43;;;6.00;;
11139;SDS011;5624;49.388;11.350;2023-02-28T02:02:00;8.40;;;5.87;;
11139;SDS011;5624;49.388;11.350;2023-02-28T02:04:27;8.13;;;6.10;;
11139;SDS011;5624;49.388;11.350;2023-02-28T02:07:03;9.07;;;6.10;;
11139;SDS011;5624;49.388;11.350;2023-02-28T02:09:29;8.20;;;6.17;;
11139;SDS011;5624;49.388;11.350;2023-02-28T02:11:55;8.60;;;6.20;;
11139;SDS011;5624;49.388;11.350;2023-02-28T02:14:42;9.67;;;6.03;;
11139;SDS011;5624;49.388;11.350;2023-02-28T02:17:34;9.73;;;6.47;;
11139;SDS011;5624;49.388;11.350;2023-02-28T02:28:56;8.37;;;5.77;;
11139;SDS011;5624;49.388;11.350;2023-02-28T02:47:53;11.80;;;7.03;;
11139;SDS011;5624;49.388;11.350;2023-02-28T02:50:22;10.27;;;7.10;;
11139;SDS011;5624;49.388;11.350;2023-02-28T02:52:52;8.80;;;6.77;;
11139;SDS011;5624;49.388;11.350;2023-02-28T02:55:21;10.43;;;6.90;;
11139;SDS011;5624;49.388;11.350;2023-02-28T02:57:59;9.23;;;6.77;;
11139;SDS011;5624;49.388;11.350;2023-02-28T03:00:33;11.63;;;6.67;;
11139;SDS011;5624;49.388;11.350;2023-02-28T03:03:02;10.17;;;7.63;;
11139;SDS011;5624;49.388;11.350;2023-02-28T03:05:33;8.63;;;6.83;;
11139;SDS011;5624;49.388;11.350;2023-02-28T03:08:09;10.00;;;7.13;;
11139;SDS011;5624;49.388;11.350;2023-02-28T03:15:44;9.57;;;6.53;;
11139;SDS011;5624;49.388;11.350;2023-02-28T03:21:03;10.67;;;7.37;;
11139;SDS011;5624;49.388;11.350;2023-02-28T03:26:26;9.60;;;6.93;;
11139;SDS011;5624;49.388;11.350;2023-02-28T03:31:48;8.77;;;7.40;;
11139;SDS011;5624;49.388;11.350;2023-02-28T03:34:26;10.37;;;7.87;;
11139;SDS011;5624;49.388;11.350;2023-02-28T03:37:02;10.13;;;8.03;;
11139;SDS011;5624;49.388;11.350;2023-02-28T03:42:38;8.90;;;7.63;;
11139;SDS011;5624;49.388;11.350;2023-02-28T03:45:14;10.33;;;8.30;;
11139;SDS011;5624;49.388;11.350;2023-02-28T03:50:17;10.93;;;8.00;;
11139;SDS011;5624;49.388;11.350;2023-02-28T03:52:50;12.77;;;8.50;;
11139;SDS011;5624;49.388;11.350;2023-02-28T03:55:30;12.63;;;8.63;;
11139;SDS011;5624;49.388;11.350;2023-02-28T03:58:05;14.10;;;8.50;;
11139;SDS011;5624;49.388;11.350;2023-02-28T04:00:40;10.43;;;7.77;;
11139;SDS011;5624;49.388;11.350;2023-02-28T04:03:11;11.50;;;8.93;;
11139;SDS011;5624;49.388;11.350;2023-02-28T04:05:55;9.37;;;7.97;;
11139;SDS011;5624;49.388;11.350;2023-02-28T04:08:22;12.20;;;8.73;;
11139;SDS011;5624;49.388;11.350;2023-02-28T04:10:50;11.40;;;8.73;;
11139;SDS011;5624;49.388;11.350;2023-02-28T04:13:20;9.97;;;8.00;;
11139;SDS011;5624;49.388;11.350;2023-02-28T04:15:46;10.93;;;9.03;;
11139;SDS011;5624;49.388;11.350;2023-02-28T04:18:11;11.43;;;9.13;;
11139;SDS011;5624;49.388;11.350;2023-02-28T04:20:37;12.17;;;9.20;;
11139;SDS011;5624;49.388;11.350;2023-02-28T04:23:02;13.20;;;9.50;;
11139;SDS011;5624;49.388;11.350;2023-02-28T04:25:28;12.10;;;9.07;;
11139;SDS011;5624;49.388;11.350;2023-02-28T04:27:53;13.27;;;9.67;;
11139;SDS011;5624;49.388;11.350;2023-02-28T04:30:19;12.33;;;8.83;;
11139;SDS011;5624;49.388;11.350;2023-02-28T04:32:44;10.93;;;9.07;;
11139;SDS011;5624;49.388;11.350;2023-02-28T04:35:10;12.13;;;8.70;;
11139;SDS011;5624;49.388;11.350;2023-02-28T04:37:35;11.53;;;9.00;;
11139;SDS011;5624;49.388;11.350;2023-02-28T04:40:02;13.67;;;9.73;;
11139;SDS011;5624;49.388;11.350;2023-02-28T04:42:28;12.43;;;10.17;;
11139;SDS011;5624;49.388;11.350;2023-02-28T04:45:00;13.40;;;10.43;;
11139;SDS011;5624;49.388;11.350;2023-02-28T04:47:28;10.83;;;9.67;;
11139;SDS011;5624;49.388;11.350;2023-02-28T04:49:54;11.30;;;9.07;;
11139;SDS011;5624;49.388;11.350;2023-02-28T04:52:20;11.97;;;9.87;;
11139;SDS011;5624;49.388;11.350;2023-02-28T04:54:45;13.87;;;9.57;;
11139;SDS011;5624;49.388;11.350;2023-02-28T04:57:11;15.57;;;9.97;;
11139;SDS011;5624;49.388;11.350;2023-02-28T04:59:36;14.37;;;10.67;;
11139;SDS011;5624;49.388;11.350;2023-02-28T05:02:02;12.23;;;9.80;;
11139;SDS011;5624;49.388;11.350;2023-02-28T05:04:32;15.03;;;10.50;;
11139;SDS011;5624;49.388;11.350;2023-02-28T05:06:59;13.50;;;10.17;;
11139;SDS011;5624;49.388;11.350;2023-02-28T05:09:25;13.20;;;10.30;;
11139;SDS011;5624;49.388;11.350;2023-02-28T05:11:51;12.73;;;9.93;;
11139;SDS011;5624;49.388;11.350;2023-02-28T05:14:16;14.03;;;10.73;;
11139;SDS011;5624;49.388;11.350;2023-02-28T05:16:42;12.77;;;10.10;;
11139;SDS011;5624;49.388;11.350;2023-02-28T05:19:08;14.40;;;9.93;;
11139;SDS011;5624;49.388;11.350;2023-02-28T05:21:35;12.40;;;9.57;;
11139;SDS011;5624;49.388;11.350;2023-02-28T05:24:07;11.50;;;10.30;;
11139;SDS011;5624;49.388;11.350;2023-02-28T05:26:36;13.60;;;9.47;;
11139;SDS011;5624;49.388;11.350;2023-02-28T05:29:03;12.30;;;9.67;;
11139;SDS011;5624;49.388;11.350;2023-02-28T05:31:29;14.60;;;10.17;;
11139;SDS011;5624;49.388;11.350;2023-02-28T05:33:55;12.30;;;10.17;;
11139;SDS011;5624;49.388;11.350;2023-02-28T05:36:21;14.10;;;9.67;;
11139;SDS011;5624;49.388;11.350;2023-02-28T05:38:48;13.73;;;9.43;;
11139;SDS011;5624;49.388;11.350;2023-02-28T05:41:14;13.00;;;9.83;;
11139;SDS011;5624;49.388;11.350;2023-02-28T05:43:40;14.30;;;10.23;;
11139;SDS011;5624;49.388;11.350;2023-02-28T05:46:06;13.10;;;9.83;;
11139;SDS011;5624;49.388;11.350;2023-02-28T05:48:34;12.57;;;9.73;;
11139;SDS011;5624;49.388;11.350;2023-02-28T05:51:01;12.03;;;9.13;;
11139;SDS011;5624;49.388;11.350;2023-02-28T05:53:28;12.20;;;9.73;;
11139;SDS011;5624;49.388;11.350;2023-02-28T05:55:54;10.90;;;9.27;;
11139;SDS011;5624;49.388;11.350;2023-02-28T05:58:20;11.20;;;9.50;;
11139;SDS011;5624;49.388;11.350;2023-02-28T06:00:45;12.97;;;9.97;;
11139;SDS011;5624;49.388;11.350;2023-02-28T06:03:11;10.90;;;9.60;;
11139;SDS011;5624;49.388;11.350;2023-02-28T06:05:37;12.30;;;9.73;;
11139;SDS011;5624;49.388;11.350;2023-02-28T06:08:03;11.77;;;9.30;;
11139;SDS011;5624;49.388;11.350;2023-02-28T06:10:31;14.20;;;9.93;;
11139;SDS011;5624;49.388;11.350;2023-02-28T06:12:59;13.93;;;9.53;;
11139;SDS011;5624;49.388;11.350;2023-02-28T06:15:27;12.40;;;10.10;;
11139;SDS011;5624;49.388;11.350;2023-02-28T06:17:53;12.70;;;9.47;;
11139;SDS011;5624;49.388;11.350;2023-02-28T06:20:19;11.90;;;9.17;;
11139;SDS011;5624;49.388;11.350;2023-02-28T06:22:44;10.67;;;8.83;;
11139;SDS011;5624;49.388;11.350;2023-02-28T06:25:10;12.50;;;9.17;;
11139;SDS011;5624;49.388;11.350;2023-02-28T06:27:36;14.57;;;10.50;;
11139;SDS011;5624;49.388;11.350;2023-02-28T06:30:01;21.80;;;12.77;;
11139;SDS011;5624;49.388;11.350;2023-02-28T06:32:27;13.43;;;9.40;;
11139;SDS011;5624;49.388;11.350;2023-02-28T06:34:53;17.33;;;11.63;;
11139;SDS011;5624;49.388;11.350;2023-02-28T06:37:18;13.53;;;9.80;;
11139;SDS011;5624;49.388;11.350;2023-02-28T06:39:44;12.60;;;9.97;;
11139;SDS011;5624;49.388;11.350;2023-02-28T06:42:10;13.57;;;8.17;;
11139;SDS011;5624;49.388;11.350;2023-02-28T06:44:35;12.57;;;9.00;;
11139;SDS011;5624;49.388;11.350;2023-02-28T06:47:02;12.40;;;9.70;;
11139;SDS011;5624;49.388;11.350;2023-02-28T06:49:30;14.87;;;8.93;;
11139;SDS011;5624;49.388;11.350;2023-02-28T06:51:57;13.67;;;9.90;;
11139;SDS011;5624;49.388;11.350;2023-02-28T06:54:23;15.20;;;9.20;;
11139;SDS011;5624;49.388;11.350;2023-02-28T06:56:49;10.87;;;7.77;;
11139;SDS011;5624;49.388;11.350;2023-02-28T06:59:15;10.77;;;8.30;;
11139;SDS011;5624;49.388;11.350;2023-02-28T07:01:41;11.47;;;8.37;;
11139;SDS011;5624;49.388;11.350;2023-02-28T07:04:06;10.03;;;8.07;;
11139;SDS011;5624;49.388;11.350;2023-02-28T07:06:32;11.63;;;7.90;;
11139;SDS011;5624;49.388;11.350;2023-02-28T07:08:58;10.87;;;7.87;;
11139;SDS011;5624;49.388;11.350;2023-02-28T07:11:25;10.37;;;7.13;;
11139;SDS011;5624;49.388;11.350;2023-02-28T07:13:52;9.53;;;7.73;;
11139;SDS011;5624;49.388;11.350;2023-02-28T07:16:21;9.80;;;8.10;;
11139;SDS011;5624;49.388;11.350;2023-02-28T07:18:52;9.13;;;7.33;;
11139;SDS011;5624;49.388;11.350;2023-02-28T07:21:18;9.87;;;8.10;;
11139;SDS011;5624;49.388;11.350;2023-02-28T07:23:44;12.13;;;9.07;;
11139;SDS011;5624;49.388;11.350;2023-02-28T07:26:13;11.70;;;7.60;;
11139;SDS011;5624;49.388;11.350;2023-02-28T07:28:42;11.17;;;8.37;;
11139;SDS011;5624;49.388;11.350;2023-02-28T07:31:09;12.30;;;7.97;;
11139;SDS011;5624;49.388;11.350;2023-02-28T07:33:35;8.73;;;7.50;;
11139;SDS011;5624;49.388;11.350;2023-02-28T07:36:05;7.47;;;6.07;;
11139;SDS011;5624;49.388;11.350;2023-02-28T07:38:33;9.37;;;5.90;;
11139;SDS011;5624;49.388;11.350;2023-02-28T07:41:00;10.13;;;6.87;;
11139;SDS011;5624;49.388;11.350;2023-02-28T07:43:29;13.40;;;6.73;;
11139;SDS011;5624;49.388;11.350;2023-02-28T07:45:55;9.73;;;5.43;;
11139;SDS011;5624;49.388;11.350;2023-02-28T07:48:21;8.23;;;6.30;;
11139;SDS011;5624;49.388;11.350;2023-02-28T07:50:53;7.57;;;5.53;;
11139;SDS011;5624;49.388;11.350;2023-02-28T07:53:20;8.77;;;5.60;;
11139;SDS011;5624;49.388;11.350;2023-02-28T07:55:46;9.40;;;5.30;;
11139;SDS011;5624;49.388;11.350;2023-02-28T07:58:11;10.90;;;6.43;;
11139;SDS011;5624;49.388;11.350;2023-02-28T08:00:37;17.00;;;6.67;;
11139;SDS011;5624;49.388;11.350;2023-02-28T08:03:03;10.67;;;6.33;;
11139;SDS011;5624;49.388;11.350;2023-02-28T08:05:28;12.60;;;6.93;;
11139;SDS011;5624;49.388;11.350;2023-02-28T08:07:55;9.70;;;6.10;;
11139;SDS011;5624;49.388;11.350;2023-02-28T08:10:20;11.70;;;6.93;;
11139;SDS011;5624;49.388;11.350;2023-02-28T08:12:46;11.20;;;7.20;;
11139;SDS011;5624;49.388;11.350;2023-02-28T08:15:12;9.07;;;5.80;;
11139;SDS011;5624;49.388;11.350;2023-02-28T08:17:37;7.17;;;4.63;;
11139;SDS011;5624;49.388;11.350;2023-02-28T08:20:03;9.97;;;5.50;;
11139;SDS011;5624;49.388;11.350;2023-02-28T08:22:29;10.37;;;6.80;;
11139;SDS011;5624;49.388;11.350;2023-02-28T08:24:55;8.70;;;6.60;;
11139;SDS011;5624;49.388;11.350;2023-02-28T08:27:20;15.40;;;7.17;;
11139;SDS011;5624;49.388;11.350;2023-02-28T08:29:46;11.57;;;7.20;;
11139;SDS011;5624;49.388;11.350;2023-02-28T08:32:11;9.13;;;6.00;;
11139;SDS011;5624;49.388;11.350;2023-02-28T08:34:38;9.10;;;6.33;;
11139;SDS011;5624;49.388;11.350;2023-02-28T08:37:05;12.03;;;7.43;;
11139;SDS011;5624;49.388;11.350;2023-02-28T08:39:33;11.10;;;6.93;;
11139;SDS011;5624;49.388;11.350;2023-02-28T08:42:00;8.83;;;6.50;;
11139;SDS011;5624;49.388;11.350;2023-02-28T08:44:27;12.33;;;7.60;;
11139;SDS011;5624;49.388;11.350;2023-02-28T08:46:52;7.20;;;4.83;;
11139;SDS011;5624;49.388;11.350;2023-02-28T08:49:18;9.33;;;5.83;;
11139;SDS011;5624;49.388;11.350;2023-02-28T08:51:44;13.33;;;7.50;;
11139;SDS011;5624;49.388;11.350;2023-02-28T08:54:09;10.17;;;6.47;;
11139;SDS011;5624;49.388;11.350;2023-02-28T08:56:37;12.50;;;6.83;;
11139;SDS011;5624;49.388;11.350;2023-02-28T08:59:03;9.13;;;6.10;;
11139;SDS011;5624;49.388;11.350;2023-02-28T09:01:29;9.50;;;5.93;;
11139;SDS011;5624;49.388;11.350;2023-02-28T09:03:56;11.87;;;7.10;;
11139;SDS011;5624;49.388;11.350;2023-02-28T09:06:23;8.93;;;5.07;;
11139;SDS011;5624;49.388;11.350;2023-02-28T09:08:50;9.23;;;6.27;;
11139;SDS011;5624;49.388;11.350;2023-02-28T09:11:16;10.63;;;7.50;;
11139;SDS011;5624;49.388;11.350;2023-02-28T09:13:44;11.40;;;6.63;;
11139;SDS011;5624;49.388;11.350;2023-02-28T09:16:11;11.97;;;6.80;;
11139;SDS011;5624;49.388;11.350;2023-02-28T09:18:38;8.77;;;6.23;;
11139;SDS011;5624;49.388;11.350;2023-02-28T09:21:06;9.40;;;6.27;;
11139;SDS011;5624;49.388;11.350;2023-02-28T09:23:33;9.97;;;6.87;;
11139;SDS011;5624;49.388;11.350;2023-02-28T09:25:59;11.97;;;7.23;;
11139;SDS011;5624;49.388;11.350;2023-02-28T09:28:25;7.47;;;4.63;;
11139;SDS011;5624;49.388;11.350;2023-02-28T09:30:51;5.87;;;4.60;;
11139;SDS011;5624;49.388;11.350;2023-02-28T09:33:19;12.10;;;7.43;;
11139;SDS011;5624;49.388;11.350;2023-02-28T09:35:46;10.10;;;6.67;;
11139;SDS011;5624;49.388;11.350;2023-02-28T09:38:12;12.30;;;6.63;;
11139;SDS011;5624;49.388;11.350;2023-02-28T09:40:48;10.90;;;6.60;;
11139;SDS011;5624;49.388;11.350;2023-02-28T09:43:17;11.13;;;6.47;;
11139;SDS011;5624;49.388;11.350;2023-02-28T09:45:48;8.23;;;5.40;;
11139;SDS011;5624;49.388;11.350;2023-02-28T09:48:25;11.07;;;6.63;;
11139;SDS011;5624;49.388;11.350;2023-02-28T09:51:00;13.07;;;6.87;;
11139;SDS011;5624;49.388;11.350;2023-02-28T09:53:31;13.87;;;6.53;;
11139;SDS011;5624;49.388;11.350;2023-02-28T09:56:01;9.47;;;5.43;;
11139;SDS011;5624;49.388;11.350;2023-02-28T09:58:51;9.50;;;6.40;;
11139;SDS011;5624;49.388;11.350;2023-02-28T10:10:26;10.90;;;6.40;;
11139;SDS011;5624;49.388;11.350;2023-02-28T10:12:56;9.03;;;5.97;;
11139;SDS011;5624;49.388;11.350;2023-02-28T10:15:25;9.60;;;6.10;;
11139;SDS011;5624;49.388;11.350;2023-02-28T10:17:56;14.77;;;9.33;;
11139;SDS011;5624;49.388;11.350;2023-02-28T10:20:25;10.50;;;7.13;;
11139;SDS011;5624;49.388;11.350;2023-02-28T10:23:15;8.83;;;6.03;;
11139;SDS011;5624;49.388;11.350;2023-02-28T10:25:43;9.13;;;5.73;;
11139;SDS011;5624;49.388;11.350;2023-02-28T10:28:16;11.97;;;6.47;;
11139;SDS011;5624;49.388;11.350;2023-02-28T10:30:49;11.03;;;5.57;;
11139;SDS011;5624;49.388;11.350;2023-02-28T10:33:22;12.87;;;6.87;;
11139;SDS011;5624;49.388;11.350;2023-02-28T10:35:48;10.67;;;6.57;;
11139;SDS011;5624;49.388;11.350;2023-02-28T10:38:15;9.33;;;6.60;;
11139;SDS011;5624;49.388;11.350;2023-02-28T10:40:44;11.43;;;7.33;;
11139;SDS011;5624;49.388;11.350;2023-02-28T10:45:39;10.67;;;6.30;;
11139;SDS011;5624;49.388;11.350;2023-02-28T11:01:39;9.53;;;5.90;;
11139;SDS011;5624;49.388;11.350;2023-02-28T11:04:20;9.63;;;6.13;;
11139;SDS011;5624;49.388;11.350;2023-02-28T11:07:01;9.20;;;6.30;;
11139;SDS011;5624;49.388;11.350;2023-02-28T11:11:55;11.67;;;7.03;;
11139;SDS011;5624;49.388;11.350;2023-02-28T11:14:22;8.20;;;6.57;;
11139;SDS011;5624;49.388;11.350;2023-02-28T11:16:51;12.50;;;6.50;;
11139;SDS011;5624;49.388;11.350;2023-02-28T11:19:28;10.20;;;6.60;;
11139;SDS011;5624;49.388;11.350;2023-02-28T11:22:00;7.47;;;5.80;;
11139;SDS011;5624;49.388;11.350;2023-02-28T11:24:29;14.50;;;7.87;;
11139;SDS011;5624;49.388;11.350;2023-02-28T11:27:13;8.43;;;6.20;;
11139;SDS011;5624;49.388;11.350;2023-02-28T11:29:55;11.37;;;6.80;;
11139;SDS011;5624;49.388;11.350;2023-02-28T11:32:23;10.83;;;6.53;;
11139;SDS011;5624;49.388;11.350;2023-02-28T11:35:01;11.50;;;6.90;;
11139;SDS011;5624;49.388;11.350;2023-02-28T11:37:47;11.73;;;6.77;;
11139;SDS011;5624;49.388;11.350;2023-02-28T11:40:17;8.90;;;6.57;;
11139;SDS011;5624;49.388;11.350;2023-02-28T11:42:51;11.13;;;7.17;;
11139;SDS011;5624;49.388;11.350;2023-02-28T11:48:27;8.33;;;5.60;;
11139;SDS011;5624;49.388;11.350;2023-02-28T11:51:15;9.87;;;5.80;;
11139;SDS011;5624;49.388;11.350;2023-02-28T11:57:10;12.87;;;6.83;;
11139;SDS011;5624;49.388;11.350;2023-02-28T12:00:01;12.80;;;6.63;;
11139;SDS011;5624;49.388;11.350;2023-02-28T12:05:29;12.20;;;7.33;;
11139;SDS011;5624;49.388;11.350;2023-02-28T12:28:49;16.67;;;7.80;;
11139;SDS011;5624;49.388;11.350;2023-02-28T12:31:23;18.20;;;8.13;;
11139;SDS011;5624;49.388;11.350;2023-02-28T12:33:52;8.90;;;5.47;;
11139;SDS011;5624;49.388;11.350;2023-02-28T12:36:21;10.60;;;7.30;;
11139;SDS011;5624;49.388;11.350;2023-02-28T12:39:36;8.33;;;5.50;;
11139;SDS011;5624;49.388;11.350;2023-02-28T12:47:02;12.57;;;7.40;;
11139;SDS011;5624;49.388;11.350;2023-02-28T12:52:07;9.93;;;6.40;;
11139;SDS011;5624;49.388;11.350;2023-02-28T12:59:47;11.50;;;7.37;;
11139;SDS011;5624;49.388;11.350;2023-02-28T13:02:24;12.03;;;7.63;;
11139;SDS011;5624;49.388;11.350;2023-02-28T13:11:01;10.33;;;6.43;;
11139;SDS011;5624;49.388;11.350;2023-02-28T13:13:28;8.73;;;5.60;;
11139;SDS011;5624;49.388;11.350;2023-02-28T13:20:57;10.67;;;6.70;;
11139;SDS011;5624;49.388;11.350;2023-02-28T13:26:22;8.67;;;6.57;;
11139;SDS011;5624;49.388;11.350;2023-02-28T13:32:18;11.47;;;7.10;;
11139;SDS011;5624;49.388;11.350;2023-02-28T13:42:48;12.47;;;8.03;;
11139;SDS011;5624;49.388;11.350;2023-02-28T13:45:25;12.47;;;8.20;;
11139;SDS011;5624;49.388;11.350;2023-02-28T13:55:53;12.00;;;8.13;;
11139;SDS011;5624;49.388;11.350;2023-02-28T13:58:49;13.17;;;7.00;;
11139;SDS011;5624;49.388;11.350;2023-02-28T14:07:06;9.83;;;6.00;;
11139;SDS011;5624;49.388;11.350;2023-02-28T14:09:40;12.47;;;7.57;;
11139;SDS011;5624;49.388;11.350;2023-02-28T14:17:55;12.73;;;7.90;;
11139;SDS011;5624;49.388;11.350;2023-02-28T14:20:22;10.73;;;7.77;;
11139;SDS011;5624;49.388;11.350;2023-02-28T14:25:30;10.57;;;7.03;;
11139;SDS011;5624;49.388;11.350;2023-02-28T14:28:27;11.30;;;7.73;;
11139;SDS011;5624;49.388;11.350;2023-02-28T14:31:18;12.73;;;7.43;;
11139;SDS011;5624;49.388;11.350;2023-02-28T14:37:01;8.47;;;6.40;;
11139;SDS011;5624;49.388;11.350;2023-02-28T14:39:28;11.50;;;7.87;;
11139;SDS011;5624;49.388;11.350;2023-02-28T14:41:56;9.20;;;6.83;;
11139;SDS011;5624;49.388;11.350;2023-02-28T14:44:28;10.73;;;6.23;;
11139;SDS011;5624;49.388;11.350;2023-02-28T14:46:54;12.93;;;7.83;;
11139;SDS011;5624;49.388;11.350;2023-02-28T14:52:06;13.33;;;7.57;;
11139;SDS011;5624;49.388;11.350;2023-02-28T14:54:35;11.63;;;7.33;;
11139;SDS011;5624;49.388;11.350;2023-02-28T14:57:01;13.07;;;8.30;;
11139;SDS011;5624;49.388;11.350;2023-02-28T14:59:29;11.00;;;7.00;;
11139;SDS011;5624;49.388;11.350;2023-02-28T15:04:55;10.17;;;6.63;;
11139;SDS011;5624;49.388;11.350;2023-02-28T15:07:25;12.50;;;7.33;;
11139;SDS011;5624;49.388;11.350;2023-02-28T15:15:35;10.90;;;7.20;;
11139;SDS011;5624;49.388;11.350;2023-02-28T15:18:13;11.70;;;7.80;;
11139;SDS011;5624;49.388;11.350;2023-02-28T15:20:51;11.57;;;7.53;;
11139;SDS011;5624;49.388;11.350;2023-02-28T15:23:18;11.87;;;7.50;;
11139;SDS011;5624;49.388;11.350;2023-02-28T15:25:45;10.10;;;6.37;;
11139;SDS011;5624;49.388;11.350;2023-02-28T15:28:13;11.63;;;7.40;;
11139;SDS011;5624;49.388;11.350;2023-02-28T15:30:49;9.43;;;5.37;;
11139;SDS011;5624;49.388;11.350;2023-02-28T15:33:21;12.57;;;6.83;;
11139;SDS011;5624;49.388;11.350;2023-02-28T15:35:49;9.50;;;6.37;;
11139;SDS011;5624;49.388;11.350;2023-02-28T15:38:21;10.30;;;7.10;;
11139;SDS011;5624;49.388;11.350;2023-02-28T15:40:52;8.87;;;6.80;;
11139;SDS011;5624;49.388;11.350;2023-02-28T15:43:26;11.33;;;6.43;;
11139;SDS011;5624;49.388;11.350;2023-02-28T15:46:32;11.43;;;7.23;;
11139;SDS011;5624;49.388;11.350;2023-02-28T15:48:54;8.17;;;5.10;;
11139;SDS011;5624;49.388;11.350;2023-02-28T15:51:27;13.30;;;7.60;;
11139;SDS011;5624;49.388;11.350;2023-02-28T15:54:02;14.33;;;8.97;;
11139;SDS011;5624;49.388;11.350;2023-02-28T15:59:04;7.17;;;3.87;;
11139;SDS011;5624;49.388;11.350;2023-02-28T16:04:04;10.93;;;7.80;;
11139;SDS011;5624;49.388;11.350;2023-02-28T16:09:25;12.17;;;7.73;;
11139;SDS011;5624;49.388;11.350;2023-02-28T16:11:53;12.40;;;8.30;;
11139;SDS011;5624;49.388;11.350;2023-02-28T16:14:25;12.30;;;8.33;;
11139;SDS011;5624;49.388;11.350;2023-02-28T16:16:55;13.17;;;8.10;;
11139;SDS011;5624;49.388;11.350;2023-02-28T16:19:26;14.67;;;8.67;;
11139;SDS011;5624;49.388;11.350;2023-02-28T16:21:52;12.70;;;7.73;;
11139;SDS011;5624;49.388;11.350;2023-02-28T16:24:18;10.23;;;7.00;;
11139;SDS011;5624;49.388;11.350;2023-02-28T16:26:45;13.13;;;8.23;;
11139;SDS011;5624;49.388;11.350;2023-02-28T16:29:18;12.30;;;8.13;;
11139;SDS011;5624;49.388;11.350;2023-02-28T16:31:47;12.37;;;8.57;;
11139;SDS011;5624;49.388;11.350;2023-02-28T16:34:13;14.23;;;8.43;;
11139;SDS011;5624;49.388;11.350;2023-02-28T16:36:38;13.73;;;8.13;;
11139;SDS011;5624;49.388;11.350;2023-02-28T16:39:04;13.93;;;8.07;;
11139;SDS011;5624;49.388;11.350;2023-02-28T16:41:30;12.43;;;8.77;;
11139;SDS011;5624;49.388;11.350;2023-02-28T16:43:56;11.97;;;8.53;;
11139;SDS011;5624;49.388;11.350;2023-02-28T16:46:25;14.37;;;8.43;;
11139;SDS011;5624;49.388;11.350;2023-02-28T16:48:55;15.70;;;9.80;;
11139;SDS011;5624;49.388;11.350;2023-02-28T16:51:20;13.60;;;8.57;;
11139;SDS011;5624;49.388;11.350;2023-02-28T16:53:46;13.33;;;8.87;;
11139;SDS011;5624;49.388;11.350;2023-02-28T16:56:15;16.80;;;8.33;;
11139;SDS011;5624;49.388;11.350;2023-02-28T16:58:44;12.33;;;8.57;;
11139;SDS011;5624;49.388;11.350;2023-02-28T17:01:10;13.67;;;8.87;;
11139;SDS011;5624;49.388;11.350;2023-02-28T17:03:36;13.37;;;8.10;;
11139;SDS011;5624;49.388;11.350;2023-02-28T17:06:02;16.93;;;9.23;;
11139;SDS011;5624;49.388;11.350;2023-02-28T17:08:29;20.33;;;11.20;;
11139;SDS011;5624;49.388;11.350;2023-02-28T17:10:56;14.13;;;9.03;;
11139;SDS011;5624;49.388;11.350;2023-02-28T17:13:23;12.87;;;8.70;;
11139;SDS011;5624;49.388;11.350;2023-02-28T17:15:48;12.73;;;9.60;;
11139;SDS011;5624;49.388;11.350;2023-02-28T17:18:15;11.43;;;8.13;;
11139;SDS011;5624;49.388;11.350;2023-02-28T17:20:49;13.80;;;8.30;;
11139;SDS011;5624;49.388;11.350;2023-02-28T17:23:15;15.23;;;8.07;;
11139;SDS011;5624;49.388;11.350;2023-02-28T17:25:41;13.97;;;8.47;;
11139;SDS011;5624;49.388;11.350;2023-02-28T17:28:14;14.47;;;9.73;;
11139;SDS011;5624;49.388;11.350;2023-02-28T17:30:39;13.33;;;8.97;;
11139;SDS011;5624;49.388;11.350;2023-02-28T17:33:11;19.47;;;10.77;;
11139;SDS011;5624;49.388;11.350;2023-02-28T17:35:37;15.83;;;10.07;;
11139;SDS011;5624;49.388;11.350;2023-02-28T17:38:02;17.67;;;10.37;;
11139;SDS011;5624;49.388;11.350;2023-02-28T17:40:28;20.63;;;10.43;;
11139;SDS011;5624;49.388;11.350;2023-02-28T17:42:54;17.37;;;11.23;;
11139;SDS011;5624;49.388;11.350;2023-02-28T17:45:21;15.40;;;9.87;;
11139;SDS011;5624;49.388;11.350;2023-02-28T17:47:48;18.57;;;11.10;;
11139;SDS011;5624;49.388;11.350;2023-02-28T17:50:20;16.43;;;10.47;;
11139;SDS011;5624;49.388;11.350;2023-02-28T17:52:46;20.20;;;12.37;;
11139;SDS011;5624;49.388;11.350;2023-02-28T17:55:12;15.10;;;11.10;;